sensor_id;sensor_type;location;lat;lon;timestamp;P1;durP1;ratioP1;P2;durP2;ratioP2
19221;SDS011;9745;50.828;4.378;2023-05-07T00:00:09;10.60;;;3.50;;
19221;SDS011;9745;50.828;4.378;2023-05-07T00:02:36;6.90;;;3.13;;
19221;SDS011;9745;50.828;4.378;2023-05-07T00:05:02;6.80;;;3.53;;
19221;SDS011;9745;50.828;4.378;2023-05-07T00:07:29;9.23;;;3.10;;
19221;SDS011;9745;50.828;4.378;2023-05-07T00:09:55;6.93;;;3.30;;
19221;SDS011;9745;50.828;4.378;2023-05-07T00:12:21;4.33;;;3.27;;
19221;SDS011;9745;50.828;4.378;2023-05-07T00:14:47;10.13;;;3.30;;
19221;SDS011;9745;50.828;4.378;2023-05-07T00:17:13;10.73;;;3.37;;
19221;SDS011;9745;50.828;4.378;2023-05-07T00:19:39;6.60;;;2.83;;
19221;SDS011;9745;50.828;4.378;2023-05-07T00:22:05;8.27;;;2.73;;
19221;SDS011;9745;50.828;4.378;2023-05-07T00:24:31;6.70;;;2.77;;
19221;SDS011;9745;50.828;4.378;2023-05-07T00:26:57;6.47;;;2.90;;
19221;SDS011;9745;50.828;4.378;2023-05-07T00:29:23;12.20;;;2.93;;
19221;SDS011;9745;50.828;4.378;2023-05-07T00:31:49;5.77;;;3.03;;
19221;SDS011;9745;50.828;4.378;2023-05-07T00:34:15;6.73;;;3.03;;
19221;SDS011;9745;50.828;4.378;2023-05-07T00:36:41;7.93;;;3.00;;
19221;SDS011;9745;50.828;4.378;2023-05-07T00:39:07;6.23;;;3.23;;
19221;SDS011;9745;50.828;4.378;2023-05-07T00:41:33;6.17;;;3.20;;
19221;SDS011;9745;50.828;4.378;2023-05-07T00:44:00;6.73;;;3.00;;
19221;SDS011;9745;50.828;4.378;2023-05-07T00:46:27;11.33;;;3.57;;
19221;SDS011;9745;50.828;4.378;2023-05-07T00:48:53;10.73;;;3.47;;
19221;SDS011;9745;50.828;4.378;2023-05-07T00:51:20;6.00;;;2.90;;
19221;SDS011;9745;50.828;4.378;2023-05-07T00:53:46;6.03;;;2.87;;
19221;SDS011;9745;50.828;4.378;2023-05-07T00:56:12;8.77;;;3.33;;
19221;SDS011;9745;50.828;4.378;2023-05-07T00:58:38;6.80;;;3.10;;
19221;SDS011;9745;50.828;4.378;2023-05-07T01:01:04;8.47;;;3.20;;
19221;SDS011;9745;50.828;4.378;2023-05-07T01:03:31;5.03;;;2.83;;
19221;SDS011;9745;50.828;4.378;2023-05-07T01:05:57;9.80;;;3.17;;
19221;SDS011;9745;50.828;4.378;2023-05-07T01:08:25;6.00;;;3.13;;
19221;SDS011;9745;50.828;4.378;2023-05-07T01:10:53;6.53;;;3.20;;
19221;SDS011;9745;50.828;4.378;2023-05-07T01:13:20;9.17;;;3.17;;
19221;SDS011;9745;50.828;4.378;2023-05-07T01:15:46;6.57;;;3.80;;
19221;SDS011;9745;50.828;4.378;2023-05-07T01:18:12;10.30;;;3.20;;
19221;SDS011;9745;50.828;4.378;2023-05-07T01:20:38;9.53;;;3.37;;
19221;SDS011;9745;50.828;4.378;2023-05-07T01:23:05;7.67;;;3.10;;
19221;SDS011;9745;50.828;4.378;2023-05-07T01:25:32;7.67;;;3.07;;
19221;SDS011;9745;50.828;4.378;2023-05-07T01:27:58;8.07;;;2.90;;
19221;SDS011;9745;50.828;4.378;2023-05-07T01:30:26;6.93;;;3.10;;
19221;SDS011;9745;50.828;4.378;2023-05-07T01:32:53;7.57;;;3.13;;
19221;SDS011;9745;50.828;4.378;2023-05-07T01:35:38;11.03;;;3.40;;
19221;SDS011;9745;50.828;4.378;2023-05-07T01:38:04;10.03;;;3.40;;
19221;SDS011;9745;50.828;4.378;2023-05-07T01:40:31;6.73;;;3.47;;
19221;SDS011;9745;50.828;4.378;2023-05-07T01:42:57;10.17;;;3.73;;
19221;SDS011;9745;50.828;4.378;2023-05-07T01:45:23;8.03;;;2.90;;
19221;SDS011;9745;50.828;4.378;2023-05-07T01:47:50;7.53;;;3.37;;
19221;SDS011;9745;50.828;4.378;2023-05-07T01:50:17;8.53;;;3.57;;
19221;SDS011;9745;50.828;4.378;2023-05-07T01:52:44;9.03;;;3.17;;
19221;SDS011;9745;50.828;4.378;2023-05-07T01:55:10;9.27;;;3.37;;
19221;SDS011;9745;50.828;4.378;2023-05-07T01:57:36;9.63;;;3.60;;
19221;SDS011;9745;50.828;4.378;2023-05-07T02:00:02;7.00;;;3.13;;
19221;SDS011;9745;50.828;4.378;2023-05-07T02:02:30;11.73;;;3.63;;
19221;SDS011;9745;50.828;4.378;2023-05-07T02:04:56;5.43;;;3.30;;
19221;SDS011;9745;50.828;4.378;2023-05-07T02:07:22;8.30;;;3.40;;
19221;SDS011;9745;50.828;4.378;2023-05-07T02:09:48;6.80;;;3.30;;
19221;SDS011;9745;50.828;4.378;2023-05-07T02:12:14;9.07;;;3.17;;
19221;SDS011;9745;50.828;4.378;2023-05-07T02:14:40;10.50;;;3.73;;
19221;SDS011;9745;50.828;4.378;2023-05-07T02:17:07;10.33;;;3.10;;
19221;SDS011;9745;50.828;4.378;2023-05-07T02:19:33;7.40;;;3.10;;
19221;SDS011;9745;50.828;4.378;2023-05-07T02:21:59;6.20;;;2.67;;
19221;SDS011;9745;50.828;4.378;2023-05-07T02:24:25;7.10;;;2.80;;
19221;SDS011;9745;50.828;4.378;2023-05-07T02:26:51;13.37;;;4.60;;
19221;SDS011;9745;50.828;4.378;2023-05-07T02:29:17;11.83;;;4.27;;
19221;SDS011;9745;50.828;4.378;2023-05-07T02:31:43;6.77;;;3.20;;
19221;SDS011;9745;50.828;4.378;2023-05-07T02:34:09;8.93;;;3.37;;
19221;SDS011;9745;50.828;4.378;2023-05-07T02:36:35;11.10;;;2.97;;
19221;SDS011;9745;50.828;4.378;2023-05-07T02:39:01;12.50;;;3.77;;
19221;SDS011;9745;50.828;4.378;2023-05-07T02:41:27;8.20;;;3.43;;
19221;SDS011;9745;50.828;4.378;2023-05-07T02:43:53;10.97;;;3.30;;
19221;SDS011;9745;50.828;4.378;2023-05-07T02:46:19;7.00;;;2.97;;
19221;SDS011;9745;50.828;4.378;2023-05-07T02:48:45;10.33;;;3.37;;
19221;SDS011;9745;50.828;4.378;2023-05-07T02:51:11;11.37;;;3.53;;
19221;SDS011;9745;50.828;4.378;2023-05-07T02:53:38;7.70;;;3.87;;
19221;SDS011;9745;50.828;4.378;2023-05-07T02:56:04;9.23;;;3.43;;
19221;SDS011;9745;50.828;4.378;2023-05-07T02:58:31;11.43;;;4.03;;
19221;SDS011;9745;50.828;4.378;2023-05-07T03:00:57;6.37;;;3.30;;
19221;SDS011;9745;50.828;4.378;2023-05-07T03:03:23;7.00;;;3.27;;
19221;SDS011;9745;50.828;4.378;2023-05-07T03:05:49;8.13;;;3.47;;
19221;SDS011;9745;50.828;4.378;2023-05-07T03:08:16;11.03;;;3.63;;
19221;SDS011;9745;50.828;4.378;2023-05-07T03:10:42;8.83;;;3.57;;
19221;SDS011;9745;50.828;4.378;2023-05-07T03:13:08;13.07;;;4.00;;
19221;SDS011;9745;50.828;4.378;2023-05-07T03:15:34;6.93;;;3.47;;
19221;SDS011;9745;50.828;4.378;2023-05-07T03:18:00;14.77;;;4.20;;
19221;SDS011;9745;50.828;4.378;2023-05-07T03:20:26;7.97;;;3.53;;
19221;SDS011;9745;50.828;4.378;2023-05-07T03:22:52;7.67;;;3.50;;
19221;SDS011;9745;50.828;4.378;2023-05-07T03:25:18;10.47;;;3.50;;
19221;SDS011;9745;50.828;4.378;2023-05-07T03:27:44;9.87;;;3.87;;
19221;SDS011;9745;50.828;4.378;2023-05-07T03:30:10;10.73;;;3.60;;
19221;SDS011;9745;50.828;4.378;2023-05-07T03:32:36;10.63;;;3.90;;
19221;SDS011;9745;50.828;4.378;2023-05-07T03:35:02;10.63;;;4.00;;
19221;SDS011;9745;50.828;4.378;2023-05-07T03:37:29;7.03;;;3.53;;
19221;SDS011;9745;50.828;4.378;2023-05-07T03:39:55;8.17;;;3.47;;
19221;SDS011;9745;50.828;4.378;2023-05-07T03:42:21;12.90;;;4.13;;
19221;SDS011;9745;50.828;4.378;2023-05-07T03:44:47;6.87;;;3.40;;
19221;SDS011;9745;50.828;4.378;2023-05-07T03:47:13;10.57;;;4.27;;
19221;SDS011;9745;50.828;4.378;2023-05-07T03:49:39;12.63;;;3.70;;
19221;SDS011;9745;50.828;4.378;2023-05-07T03:52:05;7.30;;;3.60;;
19221;SDS011;9745;50.828;4.378;2023-05-07T03:54:31;10.43;;;3.60;;
19221;SDS011;9745;50.828;4.378;2023-05-07T03:56:57;4.63;;;2.83;;
19221;SDS011;9745;50.828;4.378;2023-05-07T03:59:24;6.97;;;3.30;;
19221;SDS011;9745;50.828;4.378;2023-05-07T04:01:50;6.07;;;3.10;;
19221;SDS011;9745;50.828;4.378;2023-05-07T04:04:16;6.97;;;2.90;;
19221;SDS011;9745;50.828;4.378;2023-05-07T04:06:42;10.30;;;3.67;;
19221;SDS011;9745;50.828;4.378;2023-05-07T04:09:08;6.50;;;2.93;;
19221;SDS011;9745;50.828;4.378;2023-05-07T04:11:35;8.57;;;3.90;;
19221;SDS011;9745;50.828;4.378;2023-05-07T04:14:01;11.37;;;3.33;;
19221;SDS011;9745;50.828;4.378;2023-05-07T04:16:27;8.67;;;3.33;;
19221;SDS011;9745;50.828;4.378;2023-05-07T04:18:53;6.87;;;3.23;;
19221;SDS011;9745;50.828;4.378;2023-05-07T04:21:20;5.73;;;2.90;;
19221;SDS011;9745;50.828;4.378;2023-05-07T04:23:46;7.10;;;2.80;;
19221;SDS011;9745;50.828;4.378;2023-05-07T04:26:12;9.43;;;3.30;;
19221;SDS011;9745;50.828;4.378;2023-05-07T04:28:38;6.37;;;2.70;;
19221;SDS011;9745;50.828;4.378;2023-05-07T04:31:05;9.30;;;3.00;;
19221;SDS011;9745;50.828;4.378;2023-05-07T04:33:31;6.07;;;2.70;;
19221;SDS011;9745;50.828;4.378;2023-05-07T04:35:58;4.77;;;2.53;;
19221;SDS011;9745;50.828;4.378;2023-05-07T04:38:28;11.67;;;3.47;;
19221;SDS011;9745;50.828;4.378;2023-05-07T04:40:55;8.20;;;2.50;;
19221;SDS011;9745;50.828;4.378;2023-05-07T04:43:22;12.77;;;3.20;;
19221;SDS011;9745;50.828;4.378;2023-05-07T04:45:49;5.37;;;2.47;;
19221;SDS011;9745;50.828;4.378;2023-05-07T04:48:15;8.40;;;3.23;;
19221;SDS011;9745;50.828;4.378;2023-05-07T04:50:44;10.63;;;3.20;;
19221;SDS011;9745;50.828;4.378;2023-05-07T04:53:10;7.80;;;3.03;;
19221;SDS011;9745;50.828;4.378;2023-05-07T04:55:36;7.73;;;2.60;;
19221;SDS011;9745;50.828;4.378;2023-05-07T04:58:02;6.93;;;2.77;;
19221;SDS011;9745;50.828;4.378;2023-05-07T05:00:29;11.60;;;2.90;;
19221;SDS011;9745;50.828;4.378;2023-05-07T05:02:55;10.00;;;2.87;;
19221;SDS011;9745;50.828;4.378;2023-05-07T05:05:21;6.67;;;2.53;;
19221;SDS011;9745;50.828;4.378;2023-05-07T05:07:47;5.17;;;2.57;;
19221;SDS011;9745;50.828;4.378;2023-05-07T05:10:13;6.93;;;2.83;;
19221;SDS011;9745;50.828;4.378;2023-05-07T05:12:41;5.37;;;2.77;;
19221;SDS011;9745;50.828;4.378;2023-05-07T05:15:07;9.93;;;2.80;;
19221;SDS011;9745;50.828;4.378;2023-05-07T05:17:33;9.43;;;3.30;;
19221;SDS011;9745;50.828;4.378;2023-05-07T05:20:00;9.73;;;2.83;;
19221;SDS011;9745;50.828;4.378;2023-05-07T05:22:26;6.40;;;2.80;;
19221;SDS011;9745;50.828;4.378;2023-05-07T05:24:54;11.37;;;3.33;;
19221;SDS011;9745;50.828;4.378;2023-05-07T05:27:20;5.03;;;2.60;;
19221;SDS011;9745;50.828;4.378;2023-05-07T05:29:46;10.40;;;2.67;;
19221;SDS011;9745;50.828;4.378;2023-05-07T05:32:12;7.80;;;2.87;;
19221;SDS011;9745;50.828;4.378;2023-05-07T05:34:38;6.53;;;2.07;;
19221;SDS011;9745;50.828;4.378;2023-05-07T05:37:04;6.37;;;2.30;;
19221;SDS011;9745;50.828;4.378;2023-05-07T05:39:31;6.87;;;2.03;;
19221;SDS011;9745;50.828;4.378;2023-05-07T05:41:57;7.83;;;2.50;;
19221;SDS011;9745;50.828;4.378;2023-05-07T05:44:23;9.83;;;2.90;;
19221;SDS011;9745;50.828;4.378;2023-05-07T05:46:49;8.53;;;2.50;;
19221;SDS011;9745;50.828;4.378;2023-05-07T05:49:15;6.17;;;2.07;;
19221;SDS011;9745;50.828;4.378;2023-05-07T05:51:41;5.33;;;2.17;;
19221;SDS011;9745;50.828;4.378;2023-05-07T05:54:07;7.13;;;2.20;;
19221;SDS011;9745;50.828;4.378;2023-05-07T05:56:33;10.40;;;2.73;;
19221;SDS011;9745;50.828;4.378;2023-05-07T05:58:59;8.47;;;3.10;;
19221;SDS011;9745;50.828;4.378;2023-05-07T06:01:25;10.20;;;2.97;;
19221;SDS011;9745;50.828;4.378;2023-05-07T06:03:51;9.70;;;2.90;;
19221;SDS011;9745;50.828;4.378;2023-05-07T06:06:17;7.67;;;2.60;;
19221;SDS011;9745;50.828;4.378;2023-05-07T06:08:44;8.30;;;3.00;;
19221;SDS011;9745;50.828;4.378;2023-05-07T06:11:10;9.17;;;3.17;;
19221;SDS011;9745;50.828;4.378;2023-05-07T06:13:36;10.17;;;3.80;;
19221;SDS011;9745;50.828;4.378;2023-05-07T06:16:02;7.83;;;3.60;;
19221;SDS011;9745;50.828;4.378;2023-05-07T06:18:29;8.17;;;3.43;;
19221;SDS011;9745;50.828;4.378;2023-05-07T06:20:55;10.57;;;3.90;;
19221;SDS011;9745;50.828;4.378;2023-05-07T06:23:21;8.00;;;3.43;;
19221;SDS011;9745;50.828;4.378;2023-05-07T06:25:50;9.60;;;3.97;;
19221;SDS011;9745;50.828;4.378;2023-05-07T06:28:16;9.13;;;4.10;;
19221;SDS011;9745;50.828;4.378;2023-05-07T06:30:45;12.63;;;4.00;;
19221;SDS011;9745;50.828;4.378;2023-05-07T06:33:12;5.77;;;3.43;;
19221;SDS011;9745;50.828;4.378;2023-05-07T06:35:38;11.83;;;4.00;;
19221;SDS011;9745;50.828;4.378;2023-05-07T06:38:04;11.60;;;3.40;;
19221;SDS011;9745;50.828;4.378;2023-05-07T06:40:30;7.50;;;3.07;;
19221;SDS011;9745;50.828;4.378;2023-05-07T06:42:56;10.87;;;3.53;;
19221;SDS011;9745;50.828;4.378;2023-05-07T06:45:22;5.60;;;2.97;;
19221;SDS011;9745;50.828;4.378;2023-05-07T06:47:48;12.53;;;3.60;;
19221;SDS011;9745;50.828;4.378;2023-05-07T06:50:14;10.30;;;3.40;;
19221;SDS011;9745;50.828;4.378;2023-05-07T06:52:41;9.40;;;3.80;;
19221;SDS011;9745;50.828;4.378;2023-05-07T06:55:08;11.50;;;3.27;;
19221;SDS011;9745;50.828;4.378;2023-05-07T06:57:34;8.83;;;3.20;;
19221;SDS011;9745;50.828;4.378;2023-05-07T07:00:01;9.57;;;4.20;;
19221;SDS011;9745;50.828;4.378;2023-05-07T07:02:27;8.67;;;2.73;;
19221;SDS011;9745;50.828;4.378;2023-05-07T07:04:53;9.33;;;3.07;;
19221;SDS011;9745;50.828;4.378;2023-05-07T07:07:19;10.67;;;3.33;;
19221;SDS011;9745;50.828;4.378;2023-05-07T07:09:45;7.80;;;3.87;;
19221;SDS011;9745;50.828;4.378;2023-05-07T07:12:11;6.73;;;3.37;;
19221;SDS011;9745;50.828;4.378;2023-05-07T07:14:37;12.47;;;5.77;;
19221;SDS011;9745;50.828;4.378;2023-05-07T07:17:03;16.30;;;7.57;;
19221;SDS011;9745;50.828;4.378;2023-05-07T07:19:30;8.57;;;4.47;;
19221;SDS011;9745;50.828;4.378;2023-05-07T07:21:56;14.37;;;6.03;;
19221;SDS011;9745;50.828;4.378;2023-05-07T07:24:22;12.07;;;5.37;;
19221;SDS011;9745;50.828;4.378;2023-05-07T07:26:48;10.73;;;4.50;;
19221;SDS011;9745;50.828;4.378;2023-05-07T07:29:14;11.43;;;3.83;;
19221;SDS011;9745;50.828;4.378;2023-05-07T07:31:40;7.47;;;3.47;;
19221;SDS011;9745;50.828;4.378;2023-05-07T07:34:06;8.83;;;3.63;;
19221;SDS011;9745;50.828;4.378;2023-05-07T07:36:32;10.40;;;3.50;;
19221;SDS011;9745;50.828;4.378;2023-05-07T07:38:58;9.17;;;3.60;;
19221;SDS011;9745;50.828;4.378;2023-05-07T07:41:24;10.13;;;3.77;;
19221;SDS011;9745;50.828;4.378;2023-05-07T07:43:50;7.33;;;3.27;;
19221;SDS011;9745;50.828;4.378;2023-05-07T07:46:16;8.40;;;3.77;;
19221;SDS011;9745;50.828;4.378;2023-05-07T07:48:42;6.77;;;3.70;;
19221;SDS011;9745;50.828;4.378;2023-05-07T07:51:08;5.73;;;3.27;;
19221;SDS011;9745;50.828;4.378;2023-05-07T07:53:34;7.87;;;3.20;;
19221;SDS011;9745;50.828;4.378;2023-05-07T07:56:00;8.07;;;3.57;;
19221;SDS011;9745;50.828;4.378;2023-05-07T07:58:26;7.13;;;2.90;;
19221;SDS011;9745;50.828;4.378;2023-05-07T08:00:52;8.03;;;3.37;;
19221;SDS011;9745;50.828;4.378;2023-05-07T08:03:20;7.83;;;3.23;;
19221;SDS011;9745;50.828;4.378;2023-05-07T08:05:46;6.73;;;3.20;;
19221;SDS011;9745;50.828;4.378;2023-05-07T08:08:14;5.73;;;3.10;;
19221;SDS011;9745;50.828;4.378;2023-05-07T08:10:40;6.57;;;3.37;;
19221;SDS011;9745;50.828;4.378;2023-05-07T08:13:06;6.33;;;2.90;;
19221;SDS011;9745;50.828;4.378;2023-05-07T08:15:32;7.03;;;3.40;;
19221;SDS011;9745;50.828;4.378;2023-05-07T08:17:59;8.37;;;3.87;;
19221;SDS011;9745;50.828;4.378;2023-05-07T08:20:28;11.13;;;3.47;;
19221;SDS011;9745;50.828;4.378;2023-05-07T08:22:54;5.20;;;3.93;;
19221;SDS011;9745;50.828;4.378;2023-05-07T08:25:20;9.70;;;3.67;;
19221;SDS011;9745;50.828;4.378;2023-05-07T08:27:46;7.83;;;3.47;;
19221;SDS011;9745;50.828;4.378;2023-05-07T08:30:13;8.97;;;3.60;;
19221;SDS011;9745;50.828;4.378;2023-05-07T08:32:39;7.30;;;3.00;;
19221;SDS011;9745;50.828;4.378;2023-05-07T08:35:05;8.83;;;5.03;;
19221;SDS011;9745;50.828;4.378;2023-05-07T08:37:31;8.33;;;4.70;;
19221;SDS011;9745;50.828;4.378;2023-05-07T08:39:57;9.30;;;5.30;;
19221;SDS011;9745;50.828;4.378;2023-05-07T08:42:23;12.73;;;5.73;;
19221;SDS011;9745;50.828;4.378;2023-05-07T08:44:51;5.90;;;3.80;;
19221;SDS011;9745;50.828;4.378;2023-05-07T08:47:20;7.13;;;3.03;;
19221;SDS011;9745;50.828;4.378;2023-05-07T08:49:47;4.33;;;3.07;;
19221;SDS011;9745;50.828;4.378;2023-05-07T08:52:14;8.73;;;3.90;;
19221;SDS011;9745;50.828;4.378;2023-05-07T08:54:40;9.93;;;3.17;;
19221;SDS011;9745;50.828;4.378;2023-05-07T08:57:06;7.80;;;2.90;;
19221;SDS011;9745;50.828;4.378;2023-05-07T08:59:33;4.87;;;2.70;;
19221;SDS011;9745;50.828;4.378;2023-05-07T09:01:59;7.73;;;3.23;;
19221;SDS011;9745;50.828;4.378;2023-05-07T09:04:25;6.03;;;3.00;;
19221;SDS011;9745;50.828;4.378;2023-05-07T09:06:51;9.73;;;3.40;;
19221;SDS011;9745;50.828;4.378;2023-05-07T09:09:17;6.80;;;3.33;;
19221;SDS011;9745;50.828;4.378;2023-05-07T09:11:46;10.10;;;3.30;;
19221;SDS011;9745;50.828;4.378;2023-05-07T09:14:12;5.83;;;3.50;;
19221;SDS011;9745;50.828;4.378;2023-05-07T09:16:38;8.77;;;3.97;;
19221;SDS011;9745;50.828;4.378;2023-05-07T09:19:04;8.50;;;3.60;;
19221;SDS011;9745;50.828;4.378;2023-05-07T09:21:30;7.87;;;3.40;;
19221;SDS011;9745;50.828;4.378;2023-05-07T09:23:56;4.63;;;3.63;;
19221;SDS011;9745;50.828;4.378;2023-05-07T09:26:23;5.70;;;3.67;;
19221;SDS011;9745;50.828;4.378;2023-05-07T09:28:49;5.33;;;2.70;;
19221;SDS011;9745;50.828;4.378;2023-05-07T09:31:15;5.00;;;2.87;;
19221;SDS011;9745;50.828;4.378;2023-05-07T09:33:41;6.33;;;3.23;;
19221;SDS011;9745;50.828;4.378;2023-05-07T09:36:08;7.83;;;3.30;;
19221;SDS011;9745;50.828;4.378;2023-05-07T09:38:35;7.50;;;3.40;;
19221;SDS011;9745;50.828;4.378;2023-05-07T09:41:02;6.60;;;2.53;;
19221;SDS011;9745;50.828;4.378;2023-05-07T09:43:31;6.63;;;2.67;;
19221;SDS011;9745;50.828;4.378;2023-05-07T09:46:00;4.87;;;2.30;;
19221;SDS011;9745;50.828;4.378;2023-05-07T09:48:26;6.70;;;2.43;;
19221;SDS011;9745;50.828;4.378;2023-05-07T09:50:54;4.40;;;2.20;;
19221;SDS011;9745;50.828;4.378;2023-05-07T09:53:23;4.80;;;2.27;;
19221;SDS011;9745;50.828;4.378;2023-05-07T09:55:49;3.97;;;1.93;;
19221;SDS011;9745;50.828;4.378;2023-05-07T09:58:16;4.33;;;2.00;;
19221;SDS011;9745;50.828;4.378;2023-05-07T10:00:44;5.23;;;2.30;;
19221;SDS011;9745;50.828;4.378;2023-05-07T10:03:11;4.23;;;2.07;;
19221;SDS011;9745;50.828;4.378;2023-05-07T10:05:40;5.60;;;2.90;;
19221;SDS011;9745;50.828;4.378;2023-05-07T10:08:06;7.73;;;2.60;;
19221;SDS011;9745;50.828;4.378;2023-05-07T10:10:33;6.87;;;2.50;;
19221;SDS011;9745;50.828;4.378;2023-05-07T10:13:00;5.17;;;2.53;;
19221;SDS011;9745;50.828;4.378;2023-05-07T10:15:26;3.87;;;2.40;;
19221;SDS011;9745;50.828;4.378;2023-05-07T10:17:53;7.17;;;2.87;;
19221;SDS011;9745;50.828;4.378;2023-05-07T10:20:20;4.93;;;2.40;;
19221;SDS011;9745;50.828;4.378;2023-05-07T10:22:47;7.70;;;2.73;;
19221;SDS011;9745;50.828;4.378;2023-05-07T10:25:16;5.77;;;2.60;;
19221;SDS011;9745;50.828;4.378;2023-05-07T10:27:43;4.60;;;2.33;;
19221;SDS011;9745;50.828;4.378;2023-05-07T10:32:40;8.13;;;2.60;;
19221;SDS011;9745;50.828;4.378;2023-05-07T10:35:14;6.57;;;2.60;;
19221;SDS011;9745;50.828;4.378;2023-05-07T10:37:40;6.50;;;2.67;;
19221;SDS011;9745;50.828;4.378;2023-05-07T10:40:07;5.00;;;2.50;;
19221;SDS011;9745;50.828;4.378;2023-05-07T10:42:34;6.13;;;2.50;;
19221;SDS011;9745;50.828;4.378;2023-05-07T10:45:11;4.77;;;2.83;;
19221;SDS011;9745;50.828;4.378;2023-05-07T10:48:00;4.97;;;2.60;;
19221;SDS011;9745;50.828;4.378;2023-05-07T10:50:24;4.77;;;2.40;;
19221;SDS011;9745;50.828;4.378;2023-05-07T10:55:35;6.67;;;3.10;;
19221;SDS011;9745;50.828;4.378;2023-05-07T10:58:23;5.47;;;2.13;;
19221;SDS011;9745;50.828;4.378;2023-05-07T11:00:47;3.90;;;2.40;;
19221;SDS011;9745;50.828;4.378;2023-05-07T11:03:14;3.23;;;2.03;;
19221;SDS011;9745;50.828;4.378;2023-05-07T11:05:40;3.83;;;2.00;;
19221;SDS011;9745;50.828;4.378;2023-05-07T11:08:07;3.93;;;2.60;;
19221;SDS011;9745;50.828;4.378;2023-05-07T11:10:49;4.17;;;2.17;;
19221;SDS011;9745;50.828;4.378;2023-05-07T11:13:16;4.93;;;2.07;;
19221;SDS011;9745;50.828;4.378;2023-05-07T11:15:43;4.83;;;1.90;;
19221;SDS011;9745;50.828;4.378;2023-05-07T11:18:10;3.80;;;1.73;;
19221;SDS011;9745;50.828;4.378;2023-05-07T11:20:43;3.40;;;2.03;;
19221;SDS011;9745;50.828;4.378;2023-05-07T11:25:59;4.83;;;2.10;;
19221;SDS011;9745;50.828;4.378;2023-05-07T11:28:59;4.33;;;2.23;;
19221;SDS011;9745;50.828;4.378;2023-05-07T11:31:23;4.73;;;2.30;;
19221;SDS011;9745;50.828;4.378;2023-05-07T11:33:49;4.63;;;2.10;;
19221;SDS011;9745;50.828;4.378;2023-05-07T11:36:15;4.03;;;2.10;;
19221;SDS011;9745;50.828;4.378;2023-05-07T11:38:41;4.10;;;2.03;;
19221;SDS011;9745;50.828;4.378;2023-05-07T11:41:07;3.50;;;1.97;;
19221;SDS011;9745;50.828;4.378;2023-05-07T11:43:34;5.00;;;2.10;;
19221;SDS011;9745;50.828;4.378;2023-05-07T11:46:05;3.67;;;1.83;;
19221;SDS011;9745;50.828;4.378;2023-05-07T11:48:32;3.47;;;1.90;;
19221;SDS011;9745;50.828;4.378;2023-05-07T11:53:24;4.30;;;1.73;;
19221;SDS011;9745;50.828;4.378;2023-05-07T11:55:57;3.73;;;1.77;;
19221;SDS011;9745;50.828;4.378;2023-05-07T11:58:23;2.70;;;1.50;;
19221;SDS011;9745;50.828;4.378;2023-05-07T12:00:50;3.53;;;1.60;;
19221;SDS011;9745;50.828;4.378;2023-05-07T12:03:16;3.40;;;1.63;;
19221;SDS011;9745;50.828;4.378;2023-05-07T12:05:43;2.93;;;1.80;;
19221;SDS011;9745;50.828;4.378;2023-05-07T12:08:19;3.67;;;1.57;;
19221;SDS011;9745;50.828;4.378;2023-05-07T12:10:46;3.20;;;1.93;;
19221;SDS011;9745;50.828;4.378;2023-05-07T12:13:22;2.60;;;1.80;;
19221;SDS011;9745;50.828;4.378;2023-05-07T12:15:52;3.53;;;1.70;;
19221;SDS011;9745;50.828;4.378;2023-05-07T12:18:18;5.13;;;1.73;;
19221;SDS011;9745;50.828;4.378;2023-05-07T12:20:45;3.20;;;1.80;;
19221;SDS011;9745;50.828;4.378;2023-05-07T12:23:11;4.70;;;1.77;;
19221;SDS011;9745;50.828;4.378;2023-05-07T12:25:38;4.83;;;1.70;;
19221;SDS011;9745;50.828;4.378;2023-05-07T12:28:05;4.93;;;1.70;;
19221;SDS011;9745;50.828;4.378;2023-05-07T12:30:38;5.03;;;1.77;;
19221;SDS011;9745;50.828;4.378;2023-05-07T12:33:04;2.13;;;1.80;;
19221;SDS011;9745;50.828;4.378;2023-05-07T12:35:31;4.23;;;1.90;;
19221;SDS011;9745;50.828;4.378;2023-05-07T12:37:57;3.33;;;2.03;;
19221;SDS011;9745;50.828;4.378;2023-05-07T12:40:25;3.63;;;2.03;;
19221;SDS011;9745;50.828;4.378;2023-05-07T12:42:52;5.77;;;2.87;;
19221;SDS011;9745;50.828;4.378;2023-05-07T12:45:21;3.40;;;2.83;;
19221;SDS011;9745;50.828;4.378;2023-05-07T12:47:47;3.80;;;2.93;;
19221;SDS011;9745;50.828;4.378;2023-05-07T12:50:14;5.27;;;3.47;;
19221;SDS011;9745;50.828;4.378;2023-05-07T12:52:40;7.40;;;3.40;;
19221;SDS011;9745;50.828;4.378;2023-05-07T12:55:07;4.90;;;3.10;;
19221;SDS011;9745;50.828;4.378;2023-05-07T12:57:40;5.40;;;4.03;;
19221;SDS011;9745;50.828;4.378;2023-05-07T13:00:06;4.60;;;3.73;;
19221;SDS011;9745;50.828;4.378;2023-05-07T13:02:37;6.00;;;4.33;;
19221;SDS011;9745;50.828;4.378;2023-05-07T13:05:03;7.33;;;4.37;;
19221;SDS011;9745;50.828;4.378;2023-05-07T13:07:29;5.97;;;4.70;;
19221;SDS011;9745;50.828;4.378;2023-05-07T13:09:55;6.90;;;4.87;;
19221;SDS011;9745;50.828;4.378;2023-05-07T13:12:21;7.83;;;4.70;;
19221;SDS011;9745;50.828;4.378;2023-05-07T13:14:47;4.93;;;4.43;;
19221;SDS011;9745;50.828;4.378;2023-05-07T13:17:13;7.83;;;6.13;;
19221;SDS011;9745;50.828;4.378;2023-05-07T13:19:39;7.00;;;5.17;;
19221;SDS011;9745;50.828;4.378;2023-05-07T13:22:05;7.53;;;5.87;;
19221;SDS011;9745;50.828;4.378;2023-05-07T13:24:31;6.90;;;5.70;;
19221;SDS011;9745;50.828;4.378;2023-05-07T13:26:57;6.40;;;5.33;;
19221;SDS011;9745;50.828;4.378;2023-05-07T13:29:23;7.40;;;5.63;;
19221;SDS011;9745;50.828;4.378;2023-05-07T13:31:53;8.00;;;5.73;;
19221;SDS011;9745;50.828;4.378;2023-05-07T13:34:20;6.63;;;5.00;;
19221;SDS011;9745;50.828;4.378;2023-05-07T13:36:46;6.77;;;4.67;;
19221;SDS011;9745;50.828;4.378;2023-05-07T13:39:12;5.93;;;4.87;;
19221;SDS011;9745;50.828;4.378;2023-05-07T13:41:38;6.63;;;5.57;;
19221;SDS011;9745;50.828;4.378;2023-05-07T13:44:04;5.50;;;4.63;;
19221;SDS011;9745;50.828;4.378;2023-05-07T13:46:30;9.40;;;5.53;;
19221;SDS011;9745;50.828;4.378;2023-05-07T13:48:56;6.13;;;4.83;;
19221;SDS011;9745;50.828;4.378;2023-05-07T13:51:22;7.13;;;5.10;;
19221;SDS011;9745;50.828;4.378;2023-05-07T13:53:48;7.43;;;6.37;;
19221;SDS011;9745;50.828;4.378;2023-05-07T13:56:15;8.87;;;7.67;;
19221;SDS011;9745;50.828;4.378;2023-05-07T13:58:41;7.97;;;6.60;;
19221;SDS011;9745;50.828;4.378;2023-05-07T14:01:07;7.60;;;6.10;;
19221;SDS011;9745;50.828;4.378;2023-05-07T14:03:33;8.07;;;7.10;;
19221;SDS011;9745;50.828;4.378;2023-05-07T14:06:00;8.50;;;7.27;;
19221;SDS011;9745;50.828;4.378;2023-05-07T14:08:26;9.20;;;7.10;;
19221;SDS011;9745;50.828;4.378;2023-05-07T14:10:52;8.37;;;6.70;;
19221;SDS011;9745;50.828;4.378;2023-05-07T14:13:19;7.87;;;7.07;;
19221;SDS011;9745;50.828;4.378;2023-05-07T14:15:45;8.80;;;6.80;;
19221;SDS011;9745;50.828;4.378;2023-05-07T14:18:15;8.90;;;7.30;;
19221;SDS011;9745;50.828;4.378;2023-05-07T14:20:41;10.63;;;7.27;;
19221;SDS011;9745;50.828;4.378;2023-05-07T14:23:08;10.00;;;7.70;;
19221;SDS011;9745;50.828;4.378;2023-05-07T14:25:34;7.87;;;6.93;;
19221;SDS011;9745;50.828;4.378;2023-05-07T14:28:00;6.97;;;6.23;;
19221;SDS011;9745;50.828;4.378;2023-05-07T14:30:26;7.77;;;6.23;;
19221;SDS011;9745;50.828;4.378;2023-05-07T14:32:52;10.90;;;6.57;;
19221;SDS011;9745;50.828;4.378;2023-05-07T14:35:18;5.80;;;5.10;;
19221;SDS011;9745;50.828;4.378;2023-05-07T14:37:45;6.63;;;5.13;;
19221;SDS011;9745;50.828;4.378;2023-05-07T14:40:11;6.53;;;4.87;;
19221;SDS011;9745;50.828;4.378;2023-05-07T14:42:37;5.67;;;4.93;;
19221;SDS011;9745;50.828;4.378;2023-05-07T14:45:03;9.00;;;4.83;;
19221;SDS011;9745;50.828;4.378;2023-05-07T14:47:29;5.67;;;4.60;;
19221;SDS011;9745;50.828;4.378;2023-05-07T14:49:55;6.17;;;4.80;;
19221;SDS011;9745;50.828;4.378;2023-05-07T14:52:22;7.10;;;4.70;;
19221;SDS011;9745;50.828;4.378;2023-05-07T14:54:48;7.07;;;5.40;;
19221;SDS011;9745;50.828;4.378;2023-05-07T14:57:14;5.93;;;5.33;;
19221;SDS011;9745;50.828;4.378;2023-05-07T14:59:44;6.47;;;5.50;;
19221;SDS011;9745;50.828;4.378;2023-05-07T15:02:13;8.93;;;5.43;;
19221;SDS011;9745;50.828;4.378;2023-05-07T15:04:40;7.73;;;5.40;;